LIPZ/VCE METAR and TAF weather

Enter ICAO airport designator
Station Type Date Time Source
LIPZ METAR 2020/09/22 17:20 UTC NOAA

LIPZ 221720Z 09005KT 9999 SCT040 21/18 Q1012 NOSIG


Station Type Date Time Source
LIPZ Decoded METAR 2020/09/22 17:20 UTC NOAA

Venezia / Tessera, Italy (LIPZ) 45-30N 012-20E 6M
Sep 22, 2020 - 01:20 PM EDT / 2020.09.22 1720 UTC
Wind: from the E (090 degrees) at 6 MPH (5 KT):0
Visibility: greater than 7 mile(s):0
Sky conditions: partly cloudy
Temperature: 69 F (21 C)
Dew Point: 64 F (18 C)
Relative Humidity: 82%
Pressure (altimeter): 29.88 in. Hg (1012 hPa)
ob: LIPZ 221720Z 09005KT 9999 SCT040 21/18 Q1012 NOSIG
cycle: 17

Station Type Date Time Source
LIPZ TAF 2020/09/22 18:21 UTC NOAA

TAF LIPZ 221700Z 2218/2324 VRB05KT 9999 BKN040
TEMPO 2218/2320 4000 TSRA

Example: see airport list